Startpagina
METAR-TAF:

METAR-TAF

Vliegvelden :

Aeroport de Barcelona-el Prat

Barcelona, Spanje

breedte: 41-17N, lengte: 002-04E, hoogte: 4 m

Actueel weer

Dit bericht is 41 minuten geleden gemaakt, om 20:30 UTC
Wind 8 kt uit het westzuidwesten
Temperatuur 13°C
Vochtigheid 88%
Druk 1030 hPa
Zicht 10 km of meer
geen wolken onder 1500 m en geen cumulonimbus

METAR: LEBL 232030Z 24008KT CAVOK 13/11 Q1030 NOSIG

Tijdstip: 22:11 (21:11 UTC)

Verwachting

Dit bericht is 4 uur en het 11 minuten geleden gemaakt, om 17:00 UTC
Verwachting geldig van 23 om 18 UTC tot 24 om 18 UTC
Wind 10 kt uit het zuidwesten
Zicht: 9000 m
Weinig wolken op 3000 ft
Wijzigt naar
van 23 om 20 UTC tot 23 om 22 UTC
Wind 3 kt uit variabele richting
Tijdelijke
van 24 om 12 UTC tot 24 om 14 UTC
Wind 10 kt uit het zuidzuidwesten

TAF: LEBL 231700Z 2318/2418 23010KT 9000 FEW030 TX19/2413Z TN09/2406Z BECMG 2320/2322 VRB03KT TEMPO 2412/2414 20010KT

Waarnemingen en weersverwachtingen van meer dan 4000 vliegvelden (METAR en TAF).

De beschikbare stations zijn de gele en rode punten op de kaart.

Ga met uw muis naar het station om de naam te zien.

Klik dan om waarnemingen en weersverwachtingen te zien.

kaart wijzigen: klik op de groene knoppen met een zwart kruis om in te zoomen, op de groene knop met een streepje om uit te zoomen of op de groene pijlen voor aangrenzende kaarten.


METAR-TAF: